Time;durP1;ratioP1;P1;durP2;ratioP2;P2;SDS_P1;SDS_P2;PMS_P1;PMS_P2;Temp;Humidity;BMP_temperature;BMP_pressure;BME280_temperature;BME280_humidity;BME280_pressure;Samples;Min_cycle;Max_cycle;Signal;HPM_P1;HPM_P2
2023/09/18 00:00:56;;;;;;;8.30;6.50;;;19.40;99.90;;;;;;5047069;28;20209;-65
2023/09/18 00:03:24;;;;;;;7.82;7.03;;;19.40;99.90;;;;;;5083896;28;20214;-65
2023/09/18 00:05:51;;;;;;;9.15;6.72;;;;;;;;;;5068503;27;20214;-65
2023/09/18 00:08:20;;;;;;;7.20;6.50;;;19.20;99.90;;;;;;5066049;28;21229;-65
2023/09/18 00:10:49;;;;;;;9.15;6.82;;;19.20;99.90;;;;;;5078685;28;20204;-65
2023/09/18 00:13:15;;;;;;;9.48;6.72;;;19.10;99.90;;;;;;5075965;27;20234;-65
2023/09/18 00:15:44;;;;;;;7.32;6.60;;;19.20;99.90;;;;;;5048213;27;20211;-65
2023/09/18 00:18:11;;;;;;;10.23;7.80;;;19.10;99.90;;;;;;5080251;28;20286;-65
2023/09/18 00:20:38;;;;;;;10.32;6.45;;;19.00;99.90;;;;;;5070788;28;20606;-65
2023/09/18 00:23:05;;;;;;;11.43;6.70;;;19.00;99.90;;;;;;5067180;28;20202;-65
2023/09/18 00:25:33;;;;;;;9.60;6.97;;;19.00;99.90;;;;;;5079321;27;20195;-65
2023/09/18 00:28:00;;;;;;;7.82;6.80;;;18.90;99.90;;;;;;5077646;28;20222;-64
2023/09/18 00:30:27;;;;;;;8.63;7.72;;;19.00;99.90;;;;;;5053615;28;20711;-65
2023/09/18 00:32:54;;;;;;;8.25;7.25;;;18.10;99.90;;;;;;5088539;27;20719;-65
2023/09/18 00:35:22;;;;;;;9.23;7.13;;;18.80;99.90;;;;;;5087748;27;20309;-65
2023/09/18 00:37:49;;;;;;;7.07;6.43;;;18.90;99.90;;;;;;5078897;28;20290;-65
2023/09/18 00:40:16;;;;;;;7.40;6.68;;;18.90;99.90;;;;;;5079076;27;20430;-65
2023/09/18 00:42:44;;;;;;;8.25;7.32;;;19.00;99.90;;;;;;5080079;27;20218;-64
2023/09/18 00:45:11;;;;;;;8.80;7.80;;;18.90;99.90;;;;;;5055929;27;20219;-65
2023/09/18 00:47:37;;;;;;;8.90;7.20;;;19.00;99.90;;;;;;5080993;27;20207;-65
2023/09/18 00:50:07;;;;;;;9.77;7.20;;;19.20;99.90;;;;;;5085555;27;20217;-65
2023/09/18 00:52:34;;;;;;;7.85;6.63;;;18.90;99.90;;;;;;5075576;27;20231;-65
2023/09/18 00:55:02;;;;;;;7.82;6.93;;;19.00;99.90;;;;;;5075621;27;20207;-65
2023/09/18 00:57:30;;;;;;;10.95;7.70;;;19.00;99.90;;;;;;5083914;27;20207;-64
2023/09/18 00:59:58;;;;;;;8.15;6.65;;;18.90;99.90;;;;;;5081076;27;20199;-65
2023/09/18 01:02:26;;;;;;;7.60;6.80;;;19.00;99.90;;;;;;5059821;28;20217;-65
2023/09/18 01:04:53;;;;;;;9.35;6.80;;;18.90;99.90;;;;;;5081910;27;21382;-65
2023/09/18 01:07:20;;;;;;;11.93;7.15;;;19.00;99.90;;;;;;5084213;27;20196;-65
2023/09/18 01:09:46;;;;;;;7.50;6.50;;;18.90;99.90;;;;;;5075410;27;20595;-65
2023/09/18 01:12:20;;;;;;;8.65;6.90;;;18.70;99.90;;;;;;5074559;27;20262;-65
2023/09/18 01:15:03;;;;;;;7.00;6.30;;;18.90;99.90;;;;;;5085263;27;20195;-65
2023/09/18 01:17:36;;;;;;;8.57;7.00;;;18.90;99.90;;;;;;5055599;27;20215;-65
2023/09/18 01:20:05;;;;;;;7.97;6.72;;;18.90;99.90;;;;;;5083596;27;20204;-65
2023/09/18 01:22:33;;;;;;;10.50;6.28;;;18.90;99.90;;;;;;5088638;27;20256;-65
2023/09/18 01:25:00;;;;;;;9.52;6.10;;;18.90;99.90;;;;;;5062323;27;20684;-65
2023/09/18 01:27:27;;;;;;;9.40;6.03;;;19.00;99.90;;;;;;5084165;27;20214;-65
2023/09/18 01:29:54;;;;;;;6.93;6.22;;;18.80;99.90;;;;;;5077371;28;20196;-65
2023/09/18 01:32:26;;;;;;;8.07;6.55;;;18.80;99.90;;;;;;5079365;27;20504;-65
2023/09/18 01:34:55;;;;;;;12.95;6.40;;;18.90;99.90;;;;;;5053962;27;22182;-65
2023/09/18 01:37:24;;;;;;;7.63;6.13;;;18.90;99.90;;;;;;5088690;27;20203;-64
2023/09/18 01:39:53;;;;;;;7.05;6.40;;;18.90;99.90;;;;;;5076530;27;20215;-64
2023/09/18 01:42:21;;;;;;;8.32;6.43;;;18.80;99.90;;;;;;5079745;27;20195;-65
2023/09/18 01:44:48;;;;;;;7.25;5.95;;;18.70;99.90;;;;;;5074079;27;20200;-65
2023/09/18 01:47:18;;;;;;;8.77;6.50;;;18.70;99.90;;;;;;5081337;28;20200;-65
2023/09/18 01:49:46;;;;;;;7.57;6.28;;;18.70;99.90;;;;;;5050886;28;20212;-65
2023/09/18 01:52:13;;;;;;;6.47;5.72;;;18.70;99.90;;;;;;5082016;28;20219;-65
2023/09/18 01:54:39;;;;;;;6.35;5.75;;;18.60;99.90;;;;;;5081715;28;20320;-65
2023/09/18 01:57:08;;;;;;;10.73;6.35;;;18.60;99.90;;;;;;5069073;28;20207;-65
2023/09/18 01:59:35;;;;;;;8.88;6.22;;;18.60;99.90;;;;;;5075779;28;20226;-65
2023/09/18 02:02:03;;;;;;;10.52;6.45;;;18.70;99.90;;;;;;5083786;28;20774;-65
2023/09/18 02:04:30;;;;;;;8.38;6.20;;;18.70;99.90;;;;;;5083543;27;20188;-65
2023/09/18 02:06:57;;;;;;;11.57;6.50;;;18.60;99.90;;;;;;5048546;28;21622;-65
2023/09/18 02:09:24;;;;;;;8.70;6.75;;;18.60;99.90;;;;;;5078984;27;20207;-65
2023/09/18 02:11:51;;;;;;;8.55;6.35;;;18.70;99.90;;;;;;5066354;27;21490;-64
2023/09/18 02:14:19;;;;;;;6.80;6.00;;;18.70;99.90;;;;;;5071882;27;20506;-65
2023/09/18 02:16:46;;;;;;;6.57;5.35;;;18.60;99.90;;;;;;5083451;28;20199;-65
2023/09/18 02:19:14;;;;;;;9.27;6.70;;;18.60;99.90;;;;;;5081171;28;20200;-64
2023/09/18 02:21:41;;;;;;;8.38;6.13;;;18.60;99.90;;;;;;5042668;28;20212;-65
2023/09/18 02:24:08;;;;;;;11.70;6.28;;;18.60;99.90;;;;;;5079330;28;20207;-65
2023/09/18 02:26:36;;;;;;;6.72;5.80;;;18.50;99.90;;;;;;5070354;28;20210;-65
2023/09/18 02:29:11;;;;;;;10.02;5.70;;;18.50;99.90;;;;;;5071250;28;20219;-64
2023/09/18 02:31:39;;;;;;;8.88;6.32;;;18.60;99.90;;;;;;5076517;28;20196;-64
2023/09/18 02:34:07;;;;;;;7.35;6.15;;;18.60;99.90;;;;;;5080055;27;20235;-65
2023/09/18 02:36:34;;;;;;;10.20;6.80;;;18.00;99.90;;;;;;5055838;28;20301;-65
2023/09/18 02:39:01;;;;;;;9.95;6.40;;;18.50;99.90;;;;;;5079328;28;20211;-65
2023/09/18 02:41:27;;;;;;;6.13;5.50;;;18.60;99.90;;;;;;5076490;28;20195;-65
2023/09/18 02:43:54;;;;;;;6.78;5.68;;;18.40;99.90;;;;;;5063810;27;20227;-65
2023/09/18 02:46:21;;;;;;;7.07;5.90;;;18.50;99.90;;;;;;5071686;28;20200;-65
2023/09/18 02:48:49;;;;;;;6.57;5.60;;;18.50;99.90;;;;;;5077245;27;20206;-65
2023/09/18 02:51:16;;;;;;;10.05;5.90;;;18.50;99.90;;;;;;5082385;27;20559;-65
2023/09/18 02:53:43;;;;;;;11.02;6.03;;;18.60;99.90;;;;;;5042706;28;20257;-65
2023/09/18 02:56:09;;;;;;;7.97;5.90;;;18.50;99.90;;;;;;5083195;28;20214;-64
2023/09/18 02:58:36;;;;;;;6.20;5.55;;;18.60;99.90;;;;;;5061737;28;20214;-65
2023/09/18 03:01:05;;;;;;;7.93;5.85;;;18.50;99.90;;;;;;5065331;28;20211;-65
2023/09/18 03:03:32;;;;;;;6.85;5.80;;;18.50;99.90;;;;;;5079985;28;20670;-65
2023/09/18 03:06:03;;;;;;;6.60;5.43;;;18.50;99.90;;;;;;5064291;28;20230;-65
2023/09/18 03:08:30;;;;;;;7.00;5.55;;;18.50;99.90;;;;;;5038921;27;20237;-65
2023/09/18 03:10:57;;;;;;;8.45;5.90;;;18.60;99.90;;;;;;5064192;27;20196;-64
2023/09/18 03:13:24;;;;;;;6.50;5.90;;;18.70;99.90;;;;;;5057192;28;20235;-65
2023/09/18 03:15:51;;;;;;;8.18;5.10;;;18.50;99.90;;;;;;5076661;27;20290;-65
2023/09/18 03:18:18;;;;;;;6.38;5.63;;;;;;;;;;5077663;27;20250;-65
2023/09/18 03:20:45;;;;;;;6.32;5.53;;;18.60;99.90;;;;;;5075730;27;20210;-65
2023/09/18 03:23:14;;;;;;;7.07;5.63;;;18.50;99.90;;;;;;5043236;28;20715;-64
2023/09/18 03:25:41;;;;;;;6.30;5.70;;;18.50;99.90;;;;;;5069480;28;20293;-65
2023/09/18 03:28:07;;;;;;;6.05;5.43;;;18.50;99.90;;;;;;5084664;28;20195;-65
2023/09/18 03:30:34;;;;;;;5.90;5.20;;;18.40;99.90;;;;;;5062844;28;20803;-65
2023/09/18 03:33:01;;;;;;;11.95;6.53;;;18.50;99.90;;;;;;5070425;27;20236;-65
2023/09/18 03:35:30;;;;;;;8.38;6.25;;;18.60;99.90;;;;;;5066240;27;20200;-64
2023/09/18 03:37:56;;;;;;;8.35;5.32;;;18.60;99.90;;;;;;5081931;28;21121;-65
2023/09/18 03:40:25;;;;;;;7.93;5.68;;;18.50;99.90;;;;;;5052628;28;20219;-65
2023/09/18 03:42:52;;;;;;;6.22;5.63;;;18.50;99.90;;;;;;5071411;28;20408;-64
2023/09/18 03:45:19;;;;;;;6.00;5.18;;;18.30;99.90;;;;;;5063921;28;20291;-64
2023/09/18 03:47:47;;;;;;;6.47;5.75;;;18.50;99.90;;;;;;5066115;28;20307;-64
2023/09/18 03:50:14;;;;;;;10.85;5.95;;;18.50;99.90;;;;;;5061344;28;20224;-64
2023/09/18 03:52:41;;;;;;;7.43;5.38;;;18.50;99.90;;;;;;5077595;28;20891;-65
2023/09/18 03:55:08;;;;;;;6.80;5.57;;;18.50;99.90;;;;;;5054436;28;20219;-64
2023/09/18 03:57:37;;;;;;;6.90;5.40;;;18.40;99.90;;;;;;5064437;28;20223;-65
2023/09/18 04:00:07;;;;;;;6.28;5.45;;;18.50;99.90;;;;;;5065959;28;20207;-65
2023/09/18 04:02:34;;;;;;;5.57;4.95;;;18.50;99.90;;;;;;5060226;28;20223;-65
2023/09/18 04:05:01;;;;;;;8.48;5.53;;;18.50;99.90;;;;;;5069613;28;20362;-65
2023/09/18 04:07:28;;;;;;;6.55;5.22;;;17.50;99.90;;;;;;5065252;28;20204;-65
2023/09/18 04:09:55;;;;;;;8.38;5.55;;;18.50;99.90;;;;;;5047067;28;20246;-65
2023/09/18 04:12:22;;;;;;;7.68;5.45;;;18.60;99.90;;;;;;5065459;28;20575;-65
2023/09/18 04:14:51;;;;;;;6.07;5.13;;;18.50;99.90;;;;;;5069617;28;20199;-65
2023/09/18 04:17:17;;;;;;;6.18;5.13;;;18.40;99.90;;;;;;5081001;28;20234;-65
2023/09/18 04:19:45;;;;;;;5.38;4.88;;;18.30;99.90;;;;;;5069356;28;20534;-65
2023/09/18 04:22:14;;;;;;;6.38;5.30;;;18.40;99.90;;;;;;5062326;28;20718;-65
2023/09/18 04:24:40;;;;;;;6.20;4.90;;;18.60;99.90;;;;;;5059864;28;20219;-65
2023/09/18 04:27:07;;;;;;;7.55;5.20;;;18.70;99.90;;;;;;5032022;28;20223;-65
2023/09/18 04:29:35;;;;;;;7.68;5.28;;;18.50;99.90;;;;;;5056230;28;20219;-65
2023/09/18 04:32:05;;;;;;;9.73;5.68;;;18.50;99.90;;;;;;5071763;28;20195;-66
2023/09/18 04:34:31;;;;;;;5.22;4.72;;;18.50;99.90;;;;;;5066338;28;20241;-65
2023/09/18 04:36:58;;;;;;;5.65;4.97;;;18.60;99.90;;;;;;5065426;28;20214;-65
2023/09/18 04:39:25;;;;;;;6.00;5.10;;;18.60;99.90;;;;;;5051689;28;20219;-65
2023/09/18 04:41:52;;;;;;;7.57;4.60;;;18.50;99.90;;;;;;5037691;28;20227;-64
2023/09/18 04:44:19;;;;;;;6.18;5.07;;;17.60;99.90;;;;;;5072277;28;20223;-65
2023/09/18 04:46:45;;;;;;;7.13;4.68;;;18.10;99.90;;;;;;5054791;28;20230;-65
2023/09/18 04:49:14;;;;;;;8.65;5.15;;;18.50;99.90;;;;;;5080023;28;20195;-65
2023/09/18 04:51:41;;;;;;;6.50;5.25;;;18.50;99.90;;;;;;5067930;28;20305;-65
2023/09/18 04:54:08;;;;;;;11.90;5.30;;;18.50;99.90;;;;;;5069132;28;20223;-65
2023/09/18 04:56:35;;;;;;;7.72;4.60;;;18.60;99.90;;;;;;5040078;28;21402;-65
2023/09/18 04:59:02;;;;;;;5.35;4.85;;;18.60;99.90;;;;;;5064265;28;20208;-65
2023/09/18 05:01:29;;;;;;;6.88;5.03;;;18.60;99.90;;;;;;5045111;28;20350;-65
2023/09/18 05:03:56;;;;;;;7.03;4.60;;;18.60;99.90;;;;;;5051661;22;21005;-64
2023/09/18 05:06:24;;;;;;;8.38;4.70;;;18.60;99.90;;;;;;5046698;28;22152;-65
2023/09/18 05:08:53;;;;;;;5.55;4.80;;;18.60;99.90;;;;;;5036637;28;20236;-65
2023/09/18 05:11:20;;;;;;;8.20;4.30;;;18.70;99.90;;;;;;5037814;28;20755;-65
2023/09/18 05:13:47;;;;;;;7.53;4.63;;;18.70;99.90;;;;;;5034615;28;20227;-65
2023/09/18 05:16:14;;;;;;;6.30;5.03;;;18.70;99.90;;;;;;5042590;28;20692;-65
2023/09/18 05:18:41;;;;;;;6.65;4.63;;;18.70;99.90;;;;;;5030679;28;21232;-65
2023/09/18 05:21:09;;;;;;;7.47;4.75;;;18.80;99.90;;;;;;5061817;28;20232;-65
2023/09/18 05:23:38;;;;;;;4.55;4.15;;;18.20;99.90;;;;;;5045521;28;20203;-65
2023/09/18 05:26:05;;;;;;;4.82;4.43;;;18.80;99.90;;;;;;5037758;28;20204;-65
2023/09/18 05:28:32;;;;;;;5.38;4.40;;;18.80;99.90;;;;;;5015117;28;20300;-65
2023/09/18 05:30:59;;;;;;;5.43;4.05;;;18.80;99.90;;;;;;5050678;28;20204;-65
2023/09/18 05:33:26;;;;;;;7.55;4.07;;;18.90;99.90;;;;;;5028590;28;20272;-65
2023/09/18 05:35:53;;;;;;;5.25;4.75;;;18.90;99.90;;;;;;5056083;28;20776;-65
2023/09/18 05:38:20;;;;;;;7.18;4.55;;;18.90;99.90;;;;;;5050252;28;20250;-65
2023/09/18 05:40:48;;;;;;;5.07;4.25;;;18.90;99.90;;;;;;5048243;28;20195;-66
2023/09/18 05:43:15;;;;;;;5.13;4.40;;;19.00;99.90;;;;;;5051912;28;20241;-65
2023/09/18 05:45:42;;;;;;;7.40;4.18;;;19.00;99.90;;;;;;5013184;28;21149;-65
2023/09/18 05:48:09;;;;;;;5.43;4.68;;;19.00;99.90;;;;;;5039972;28;20227;-65
2023/09/18 05:50:36;;;;;;;6.35;4.07;;;18.90;99.90;;;;;;5059065;28;20626;-65
2023/09/18 05:53:04;;;;;;;4.80;4.35;;;19.00;99.90;;;;;;5037581;28;20812;-65
2023/09/18 05:55:31;;;;;;;6.78;4.40;;;19.00;99.90;;;;;;5051299;28;20231;-65
2023/09/18 05:58:00;;;;;;;6.78;4.55;;;19.50;99.90;;;;;;5044921;28;20224;-65
2023/09/18 06:00:27;;;;;;;7.43;4.85;;;19.10;99.90;;;;;;5029031;28;20673;-65
2023/09/18 06:02:54;;;;;;;6.43;4.25;;;19.10;99.90;;;;;;5035899;28;20219;-65
2023/09/18 06:05:21;;;;;;;7.35;4.53;;;19.10;99.90;;;;;;5054528;28;20232;-65
2023/09/18 06:07:49;;;;;;;5.10;3.75;;;19.20;99.90;;;;;;5041973;28;20224;-65
2023/09/18 06:10:17;;;;;;;5.18;4.05;;;19.20;99.90;;;;;;5028108;28;20248;-64
2023/09/18 06:12:45;;;;;;;6.45;4.45;;;19.20;99.90;;;;;;5041747;28;20224;-65
2023/09/18 06:15:14;;;;;;;5.30;4.10;;;19.20;99.90;;;;;;5022706;28;21223;-65
2023/09/18 06:17:42;;;;;;;5.97;4.28;;;19.20;99.90;;;;;;5057949;28;20223;-65
2023/09/18 06:20:12;;;;;;;4.80;4.38;;;19.20;99.90;;;;;;5045670;28;20404;-65
2023/09/18 06:22:40;;;;;;;4.78;3.95;;;19.20;99.90;;;;;;5057681;28;20224;-64
2023/09/18 06:25:07;;;;;;;5.30;4.05;;;19.30;99.90;;;;;;5057858;28;20339;-65
2023/09/18 06:27:35;;;;;;;6.57;4.45;;;19.30;99.90;;;;;;5052095;28;20207;-65
2023/09/18 06:30:02;;;;;;;5.30;4.10;;;19.30;99.90;;;;;;5021726;28;21570;-65
2023/09/18 06:32:31;;;;;;;7.70;4.57;;;19.30;99.90;;;;;;5060888;28;20552;-65
2023/09/18 06:34:58;;;;;;;4.55;3.60;;;19.40;99.90;;;;;;5039489;28;20234;-65
2023/09/18 06:37:25;;;;;;;5.00;4.50;;;19.40;99.90;;;;;;5056596;28;20196;-65
2023/09/18 06:39:52;;;;;;;8.20;4.60;;;19.40;99.90;;;;;;5058674;28;20200;-65
2023/09/18 06:42:19;;;;;;;4.57;4.18;;;19.40;99.90;;;;;;5047098;28;21182;-65
2023/09/18 06:44:46;;;;;;;5.63;4.38;;;19.30;99.90;;;;;;5032115;28;20197;-65
2023/09/18 06:47:14;;;;;;;14.13;4.95;;;19.40;99.90;;;;;;5042580;28;20435;-65
2023/09/18 06:49:42;;;;;;;6.38;4.85;;;19.50;99.90;;;;;;5052018;28;20204;-65
2023/09/18 06:52:10;;;;;;;6.32;4.15;;;19.40;99.90;;;;;;5044121;28;20196;-65
2023/09/18 06:54:37;;;;;;;5.55;4.30;;;19.40;99.90;;;;;;5058238;28;20224;-65
2023/09/18 06:57:04;;;;;;;5.70;4.88;;;19.50;99.90;;;;;;5047422;28;23992;-65
2023/09/18 06:59:32;;;;;;;5.72;4.32;;;19.50;99.90;;;;;;5060335;28;20192;-65
2023/09/18 07:01:59;;;;;;;4.78;4.10;;;19.50;99.90;;;;;;5020116;28;20343;-65
2023/09/18 07:04:25;;;;;;;5.32;4.28;;;19.50;99.90;;;;;;5056936;28;20234;-65
2023/09/18 07:06:54;;;;;;;8.65;4.38;;;19.50;99.90;;;;;;5043694;28;20216;-65
2023/09/18 07:09:22;;;;;;;4.40;3.75;;;19.50;99.90;;;;;;5056502;28;20197;-66
2023/09/18 07:11:50;;;;;;;7.00;3.88;;;19.90;99.90;;;;;;5054530;28;20197;-65
2023/09/18 07:14:17;;;;;;;6.93;4.40;;;19.50;99.90;;;;;;5041929;28;20236;-65
2023/09/18 07:16:44;;;;;;;6.95;4.75;;;19.50;99.90;;;;;;5036245;28;20219;-65
2023/09/18 07:19:16;;;;;;;6.85;4.10;;;19.50;99.90;;;;;;5035961;28;20686;-65
2023/09/18 07:21:43;;;;;;;5.82;4.15;;;19.60;99.90;;;;;;5039665;28;20196;-65
2023/09/18 07:24:16;;;;;;;5.95;4.65;;;19.50;99.90;;;;;;5058966;28;20196;-65
2023/09/18 07:26:45;;;;;;;6.15;4.53;;;19.50;99.90;;;;;;5056401;28;20230;-65
2023/09/18 07:29:11;;;;;;;5.40;4.45;;;19.50;99.90;;;;;;5039441;28;20302;-65
2023/09/18 07:31:39;;;;;;;7.90;4.60;;;19.50;99.90;;;;;;5046992;28;20603;-65
2023/09/18 07:34:06;;;;;;;11.50;5.10;;;19.50;99.90;;;;;;5025116;28;21030;-66
2023/09/18 07:36:33;;;;;;;5.97;4.30;;;19.60;99.90;;;;;;5040991;28;20224;-66
2023/09/18 07:39:00;;;;;;;7.88;4.47;;;19.60;99.90;;;;;;5048886;28;20221;-66
2023/09/18 07:41:28;;;;;;;9.43;5.07;;;19.60;99.90;;;;;;5051234;28;20589;-66
2023/09/18 07:43:55;;;;;;;4.63;4.15;;;19.50;99.90;;;;;;5041616;28;20654;-65
2023/09/18 07:46:21;;;;;;;6.85;4.38;;;19.50;99.90;;;;;;5037597;28;20247;-65
2023/09/18 07:48:48;;;;;;;5.63;4.22;;;19.50;99.90;;;;;;5017749;28;20597;-65
2023/09/18 07:51:16;;;;;;;4.80;4.32;;;19.50;99.90;;;;;;5054011;28;20212;-65
2023/09/18 07:53:44;;;;;;;6.95;4.20;;;19.50;99.90;;;;;;5045538;28;20224;-65
2023/09/18 07:56:11;;;;;;;5.70;4.18;;;19.50;99.90;;;;;;5048257;28;21196;-65
2023/09/18 07:58:39;;;;;;;6.60;4.30;;;19.50;99.90;;;;;;5047691;28;20192;-65
2023/09/18 08:01:06;;;;;;;4.18;3.80;;;19.50;99.90;;;;;;5041481;28;21038;-66
2023/09/18 08:03:33;;;;;;;6.13;4.20;;;19.50;99.90;;;;;;5024692;28;20212;-65
2023/09/18 08:06:00;;;;;;;5.10;4.60;;;19.50;99.90;;;;;;5059946;28;20387;-66
2023/09/18 08:08:26;;;;;;;9.45;4.43;;;19.40;99.90;;;;;;5040180;28;20204;-66
2023/09/18 08:10:54;;;;;;;4.82;4.00;;;19.50;99.90;;;;;;5047193;28;20200;-66
2023/09/18 08:13:23;;;;;;;8.65;4.10;;;19.50;99.90;;;;;;5052655;28;20223;-66
2023/09/18 08:15:52;;;;;;;11.50;4.25;;;19.50;99.90;;;;;;5042088;28;20234;-65
2023/09/18 08:18:19;;;;;;;6.45;3.85;;;19.60;99.90;;;;;;5026887;28;20292;-66
2023/09/18 08:20:46;;;;;;;5.93;4.13;;;19.60;99.90;;;;;;5044512;28;20216;-65
2023/09/18 08:23:13;;;;;;;9.55;3.83;;;19.50;99.90;;;;;;5052816;28;20204;-65
2023/09/18 08:25:40;;;;;;;5.68;4.20;;;19.60;99.90;;;;;;5043651;28;20196;-65
2023/09/18 08:28:07;;;;;;;6.63;3.90;;;19.60;99.90;;;;;;5054748;28;20390;-64
2023/09/18 08:30:34;;;;;;;17.38;4.53;;;19.50;99.90;;;;;;5051729;28;20212;-65
2023/09/18 08:33:02;;;;;;;4.95;4.20;;;19.60;99.90;;;;;;5005210;28;25587;-65
2023/09/18 08:35:30;;;;;;;8.25;4.35;;;19.60;99.90;;;;;;5050932;28;20242;-65
2023/09/18 08:37:56;;;;;;;6.35;4.03;;;19.70;99.90;;;;;;5047627;28;21033;-65
2023/09/18 08:40:25;;;;;;;6.13;3.65;;;19.70;99.90;;;;;;5038046;28;20207;-65
2023/09/18 08:42:56;;;;;;;7.63;4.25;;;19.70;99.90;;;;;;5053682;28;20484;-65
2023/09/18 08:45:27;;;;;;;7.70;4.18;;;19.80;99.90;;;;;;5057200;28;20684;-65
2023/09/18 08:47:55;;;;;;;6.40;4.22;;;19.80;99.90;;;;;;5040440;28;20211;-65
2023/09/18 08:50:25;;;;;;;4.50;3.97;;;19.90;99.90;;;;;;5021763;28;20219;-65
2023/09/18 08:52:52;;;;;;;6.80;4.25;;;19.90;99.90;;;;;;5056421;28;20365;-64
2023/09/18 08:55:19;;;;;;;6.43;3.42;;;19.80;99.90;;;;;;5046467;28;20254;-65
2023/09/18 08:57:48;;;;;;;4.75;4.05;;;19.90;99.90;;;;;;5066383;28;20196;-65
2023/09/18 09:00:17;;;;;;;4.95;3.58;;;19.90;99.90;;;;;;5062240;28;20210;-65
2023/09/18 09:02:44;;;;;;;7.13;4.28;;;19.90;99.90;;;;;;5049304;28;20732;-65
2023/09/18 09:05:11;;;;;;;8.45;4.38;;;19.90;99.90;;;;;;5033595;28;20231;-65
2023/09/18 09:07:39;;;;;;;8.38;4.43;;;19.90;99.90;;;;;;5058592;28;20321;-65
2023/09/18 09:10:07;;;;;;;4.20;3.47;;;20.00;99.90;;;;;;5054591;28;20243;-65
2023/09/18 09:12:54;;;;;;;6.60;4.53;;;19.90;99.90;;;;;;5044209;28;20211;-65
2023/09/18 09:15:21;;;;;;;6.07;4.22;;;20.00;99.90;;;;;;5058548;28;20234;-65
2023/09/18 09:17:48;;;;;;;4.75;3.90;;;19.90;99.90;;;;;;5059297;28;20192;-65
2023/09/18 09:20:17;;;;;;;5.00;4.05;;;19.90;99.90;;;;;;5018113;28;20216;-65
2023/09/18 09:22:46;;;;;;;8.02;3.90;;;20.10;99.90;;;;;;5057512;28;20915;-65
2023/09/18 09:25:31;;;;;;;7.00;4.05;;;20.10;99.90;;;;;;5061432;28;20197;-65
2023/09/18 09:27:59;;;;;;;4.53;3.55;;;20.10;99.90;;;;;;5057169;28;20212;-65
2023/09/18 09:30:27;;;;;;;5.35;4.07;;;20.20;99.90;;;;;;5059765;28;20200;-65
2023/09/18 09:32:56;;;;;;;5.57;3.70;;;20.20;99.90;;;;;;5056694;28;20227;-65
2023/09/18 09:35:26;;;;;;;7.72;4.30;;;20.20;99.90;;;;;;5021262;28;20235;-65
2023/09/18 09:37:57;;;;;;;6.00;3.75;;;20.30;99.90;;;;;;5038148;28;20317;-65
2023/09/18 09:40:25;;;;;;;7.97;4.32;;;20.30;99.90;;;;;;5058041;28;20594;-65
2023/09/18 09:42:53;;;;;;;5.93;3.90;;;20.20;99.90;;;;;;5043499;28;20199;-66
2023/09/18 09:45:21;;;;;;;4.10;3.58;;;20.30;99.90;;;;;;5054650;28;20216;-65
2023/09/18 09:47:47;;;;;;;8.00;3.83;;;20.50;99.90;;;;;;5058277;28;20200;-66
2023/09/18 09:50:18;;;;;;;6.97;3.58;;;20.30;99.90;;;;;;5041500;28;20557;-65
2023/09/18 09:52:48;;;;;;;7.32;4.00;;;20.40;99.90;;;;;;5024231;28;20557;-65
2023/09/18 09:55:28;;;;;;;5.03;3.10;;;20.30;99.90;;;;;;5057809;28;20390;-65
2023/09/18 09:57:59;;;;;;;5.82;3.65;;;20.60;99.90;;;;;;5031943;28;20360;-65
2023/09/18 10:00:32;;;;;;;6.32;3.38;;;20.40;99.90;;;;;;5061683;28;20212;-65
2023/09/18 10:03:02;;;;;;;4.68;3.35;;;20.40;99.90;;;;;;5053796;28;20903;-65
2023/09/18 10:05:33;;;;;;;6.55;3.47;;;20.40;99.90;;;;;;5041948;28;20247;-65
2023/09/18 10:08:02;;;;;;;6.10;3.60;;;20.40;99.90;;;;;;5028602;28;20243;-65
2023/09/18 10:10:34;;;;;;;6.65;3.67;;;20.50;99.90;;;;;;5057253;28;20207;-65
2023/09/18 10:13:07;;;;;;;7.22;3.40;;;20.50;99.90;;;;;;5037989;28;20602;-65
2023/09/18 10:15:38;;;;;;;5.35;3.50;;;20.50;99.90;;;;;;5055819;28;20248;-65
2023/09/18 10:18:17;;;;;;;7.80;3.72;;;20.60;99.90;;;;;;5058665;28;20196;-65
2023/09/18 10:20:48;;;;;;;5.28;3.47;;;21.60;99.90;;;;;;5055865;28;20196;-65
2023/09/18 10:23:26;;;;;;;8.52;3.42;;;20.10;99.90;;;;;;5026581;28;20696;-65
2023/09/18 10:26:04;;;;;;;8.05;3.55;;;20.80;99.90;;;;;;5056579;28;20287;-65
2023/09/18 10:28:32;;;;;;;14.65;4.05;;;20.80;99.90;;;;;;5059334;28;20771;-65
2023/09/18 10:30:59;;;;;;;6.40;3.75;;;20.80;99.90;;;;;;5044496;28;20197;-65
2023/09/18 10:33:27;;;;;;;7.97;3.70;;;20.80;99.90;;;;;;5063438;28;20211;-65
2023/09/18 10:35:54;;;;;;;8.25;3.40;;;20.90;99.90;;;;;;5044940;28;20237;-65
2023/09/18 10:38:21;;;;;;;8.23;4.00;;;20.90;99.90;;;;;;5022420;28;20213;-65
2023/09/18 10:40:49;;;;;;;6.28;3.50;;;20.50;99.90;;;;;;5052271;28;20205;-65
2023/09/18 10:43:19;;;;;;;7.60;3.78;;;21.00;99.90;;;;;;5055143;28;20436;-65
2023/09/18 10:45:46;;;;;;;8.65;3.97;;;21.00;99.90;;;;;;5036565;28;20204;-65
2023/09/18 10:48:14;;;;;;;11.68;4.03;;;20.90;99.90;;;;;;5034967;28;20220;-65
2023/09/18 10:50:43;;;;;;;8.50;3.67;;;20.90;99.90;;;;;;5035360;28;20228;-65
2023/09/18 10:53:10;;;;;;;7.07;3.83;;;21.00;99.90;;;;;;5015083;28;20205;-65
2023/09/18 10:55:38;;;;;;;5.85;3.42;;;21.00;99.90;;;;;;5032312;28;20254;-65
2023/09/18 10:58:05;;;;;;;10.57;3.92;;;20.90;99.90;;;;;;5053526;28;20322;-65
2023/09/18 11:00:36;;;;;;;10.30;3.45;;;20.90;99.90;;;;;;5020812;28;20226;-65
2023/09/18 11:03:14;;;;;;;8.98;3.75;;;21.00;99.90;;;;;;5051100;28;20613;-65
2023/09/18 11:05:41;;;;;;;8.77;3.35;;;20.90;99.90;;;;;;5055260;28;20577;-65
2023/09/18 11:08:33;;;;;;;4.57;3.58;;;21.00;99.90;;;;;;5025035;28;20231;-65
2023/09/18 11:11:09;;;;;;;6.50;3.30;;;21.00;99.90;;;;;;5055946;28;20203;-65
2023/09/18 11:13:38;;;;;;;5.82;3.60;;;21.00;99.90;;;;;;5052345;28;20307;-65
2023/09/18 11:16:33;;;;;;;6.28;3.35;;;21.10;99.90;;;;;;5033588;28;20228;-65
2023/09/18 11:19:08;;;;;;;4.50;3.15;;;21.00;99.90;;;;;;5049233;28;20211;-65
2023/09/18 11:21:35;;;;;;;10.15;5.40;;;21.10;99.90;;;;;;5060614;28;20644;-65
2023/09/18 11:24:04;;;;;;;11.63;7.38;;;21.30;99.90;;;;;;5012490;28;20692;-65
2023/09/18 11:26:32;;;;;;;6.68;4.63;;;21.30;99.90;;;;;;5050935;28;20371;-65
2023/09/18 11:29:04;;;;;;;12.38;4.28;;;21.40;99.90;;;;;;5059858;28;20203;-65
2023/09/18 11:31:47;;;;;;;7.60;3.22;;;21.50;99.90;;;;;;5036795;28;20496;-66
2023/09/18 11:34:16;;;;;;;9.50;3.65;;;21.40;99.90;;;;;;5054280;28;20322;-65
2023/09/18 11:36:43;;;;;;;4.47;3.20;;;21.40;99.90;;;;;;5059993;28;20450;-65
2023/09/18 11:39:13;;;;;;;10.02;3.08;;;21.40;99.90;;;;;;5013722;28;20223;-65
2023/09/18 11:41:40;;;;;;;6.43;3.50;;;21.30;99.90;;;;;;5056138;28;20295;-65
2023/09/18 11:44:34;;;;;;;9.02;3.22;;;21.30;99.90;;;;;;5056020;28;21056;-65
2023/09/18 11:47:04;;;;;;;8.15;3.13;;;21.40;99.90;;;;;;5046128;28;20200;-65
2023/09/18 11:49:32;;;;;;;7.82;3.05;;;21.40;99.90;;;;;;5054472;28;20200;-65
2023/09/18 11:52:00;;;;;;;6.88;2.83;;;21.50;99.90;;;;;;5056999;28;20227;-66
2023/09/18 11:54:28;;;;;;;4.65;2.83;;;21.50;99.90;;;;;;5016815;28;20215;-66
2023/09/18 11:56:57;;;;;;;3.83;2.60;;;21.50;99.90;;;;;;5061713;28;20285;-65
2023/09/18 11:59:38;;;;;;;7.93;3.22;;;21.60;99.90;;;;;;5054473;28;20732;-66
2023/09/18 12:02:08;;;;;;;5.10;2.83;;;21.60;99.90;;;;;;5045208;28;20484;-65
2023/09/18 12:04:35;;;;;;;10.27;2.88;;;21.60;99.90;;;;;;5062788;28;20542;-65
2023/09/18 12:07:02;;;;;;;4.93;2.90;;;21.60;99.90;;;;;;5056190;28;20597;-65
2023/09/18 12:09:30;;;;;;;5.13;2.75;;;21.70;99.90;;;;;;5011073;28;21939;-65
2023/09/18 12:11:58;;;;;;;5.85;2.50;;;21.60;99.90;;;;;;5053301;28;20216;-65
2023/09/18 12:14:25;;;;;;;3.47;2.38;;;21.60;99.90;;;;;;5054012;28;20231;-65
2023/09/18 12:16:51;;;;;;;7.63;2.80;;;21.60;99.90;;;;;;5048838;28;20235;-65
2023/09/18 12:19:20;;;;;;;6.10;2.38;;;21.70;99.90;;;;;;5039153;28;20563;-65
2023/09/18 12:21:48;;;;;;;4.43;2.40;;;21.80;99.90;;;;;;5061460;28;20200;-65
2023/09/18 12:24:16;;;;;;;5.93;2.28;;;21.90;99.90;;;;;;5024000;28;20287;-66
2023/09/18 12:26:43;;;;;;;5.32;2.40;;;22.00;99.90;;;;;;5051076;28;20294;-65
2023/09/18 12:29:11;;;;;;;6.28;2.67;;;22.10;99.90;;;;;;5053731;28;20207;-65
2023/09/18 12:31:39;;;;;;;5.78;2.28;;;22.10;99.90;;;;;;5056432;28;20424;-65
2023/09/18 12:34:14;;;;;;;3.08;2.42;;;22.20;99.90;;;;;;5044927;28;20210;-65
2023/09/18 12:36:44;;;;;;;3.83;2.10;;;22.20;99.90;;;;;;5055532;28;20227;-65
2023/09/18 12:39:11;;;;;;;3.42;2.58;;;22.30;99.90;;;;;;5049462;28;20446;-65
2023/09/18 12:41:39;;;;;;;3.92;1.65;;;22.20;99.90;;;;;;5020278;28;20324;-66
2023/09/18 12:44:07;;;;;;;2.15;1.80;;;22.30;99.90;;;;;;5044441;28;20205;-66
2023/09/18 12:46:35;;;;;;;3.10;1.77;;;22.20;99.90;;;;;;5051719;28;20200;-65
2023/09/18 12:49:16;;;;;;;2.65;1.85;;;22.20;99.90;;;;;;5054200;28;20198;-65
2023/09/18 12:51:46;;;;;;;4.40;2.42;;;22.20;99.90;;;;;;5051436;28;20990;-66